Detall de PIREP

Printer-friendly versionPDF version

[2017/08/14 16:27:00]
Flight IATA:CT1004
Pilot Number:042
Company ICAO:CAT
Aircraft Type:B738/F
PAX:60
Departing Airport: LEIB
Destination Airport: LEMG
Alternate Airport:LEMD
Online: VATSIM
Route:BAVER UM603 ALT UN851 ROLAS
Flight Level:F310
No Slew and time accel
No pause
Crash detect
Detect pilot in Cockpit between each 30 and 45 minutes
16:27 Zero fuel Weight: 136054 Lbs, Fuel Weight: 30396 Lbs
16:27 VATSIM:LEIB 141600Z 09015KT 9999 FEW018 SCT025TCU 27/21 Q1015 TEMPO SHRA FEW025CB
16:27 VATSIM:LEMG 141600Z 13008KT 100V160 CAVOK 27/20 Q1014 NOSIG
16:34 Parking Brakes off
16:41 Take-off
16:41 Take off Weight: 165562 Lbs
16:41 Wind: 090º @ 015 Knots Heading: 063º
16:41 POS N38º 52´ 32´´ E001º 22´ 47´´
16:41 Flaps:4 at 174 Knots
16:41 Gear Up: 175 Knots
16:42 Flaps:3 at 174 Knots
16:42 Flaps:2 at 181 Knots
16:42 Flaps:1 at 208 Knots
16:43 Flaps:0 at 233 Knots
16:56 Wind:240º@031 Knots Heading: 236º Ground Speed: 431 Knots Altitude 26702 ft
16:59 TOC
16:59 Fuel Weight: 25631 Lb
17:11 Wind:246º@025 Knots Heading: 244º Ground Speed: 433 Knots Altitude 31049 ft
17:18 TOD
17:18 Fuel Weight: 23719 Lb
17:26 Wind:231º@020 Knots Heading: 268º Ground Speed: 345 Knots Altitude 19140 ft
17:37 Flaps:1 at 236 Knots
17:37 Flaps:2 at 231 Knots
17:37 Flaps:3 at 227 Knots
17:38 Flaps:4 at 202 Knots
17:39 Gear Down: 191 Knots
17:39 Flaps:5 at 190 Knots
17:40 Flaps:6 at 168 Knots
17:40 Flaps:7 at 155 Knots
17:41 Wind:103º@016 Knots Heading: 128º Ground Speed: 147 Knots Altitude 2831 ft
17:41 Flaps:8 at 150 Knots
17:44 TouchDown:Rate -136 ft/min Speed: 141 Knots
17:44 VATSIM:LEMG 141730Z 14008KT 110V180 9999 FEW030 26/20 Q1015 NOSIG
17:44 Land
17:44 Wind:135º@008 Knots
17:44 Heading: 131º
17:44 Flight Duration: 01:03
17:44 Landing Weight: 158433 Lbs
17:44 POS N36º 40´ 34´´ W004º 30´ 03´´
17:48 Parking brakes on
17:48 Block to Block Duration: 01:14
17:48 Final Fuel: 22209 Lbls
17:48 Spent Fuel: 8187 Lbls
17:48 Flight Length: 370 NM
17:48 TOD Land Length: 124 NM

Exportar CSV

Powered by Drupal - Modified by Danger4k